Skip Navigation

Christman Field Latest Observations

Switch to metric unitsOther observation timesWeekly graphs

Date Time
MST
Temp
°F
RH
%
DewPt
°F
Wind
mph
Dir
°
Gust
mph
Dir
°
Press
in Hg
Solar
W/m^2
Prec
in
2021-06-12 20:10 71.5 50.3 52.1 6.0 293 7.2 303 24.901 0.2 0.00
2021-06-12 20:05 71.7 47.9 50.9 7.0 290 7.7 290 24.899 0.2 0.00
2021-06-12 20:00 71.2 49.1 51.2 6.9 283 8.1 288 24.896 0.3 0.00
2021-06-12 19:55 72.5 49.4 52.5 6.7 313 7.5 316 24.895 0.5 0.00
2021-06-12 19:50 74.4 46.5 52.6 6.6 314 7.3 312 24.893 0.9 0.00
2021-06-12 19:45 76.9 41.8 51.9 4.8 309 6.6 309 24.892 1.5 0.00
2021-06-12 19:40 76.8 39.3 50.2 3.5 276 5.7 298 24.891 2.3 0.00
2021-06-12 19:35 74.6 41.2 49.5 4.3 298 6.4 294 24.889 3.3 0.00
2021-06-12 19:30 74.3 43.9 50.9 5.0 295 6.3 291 24.889 5.1 0.00
2021-06-12 19:25 75.5 43.4 51.7 5.2 281 5.8 307 24.887 8.7 0.00
2021-06-12 19:20 77.0 40.6 51.3 6.0 310 7.0 286 24.887 13.0 0.00
2021-06-12 19:15 77.7 36.8 49.3 5.1 296 7.0 296 24.886 16.9 0.00
2021-06-12 19:10 78.4 35.9 49.2 4.4 313 7.7 291 24.886 24.2 0.00
2021-06-12 19:05 78.5 33.6 47.5 6.7 306 8.7 290 24.884 31.5 0.00
2021-06-12 19:00 78.7 35.0 48.8 5.7 306 8.5 350 24.884 40.0 0.00
2021-06-12 18:55 79.7 36.2 50.6 5.7 330 8.1 304 24.883 50.0 0.00
2021-06-12 18:50 79.8 32.9 48.1 4.5 329 7.9 302 24.884 61.3 0.00
2021-06-12 18:45 80.0 35.0 49.9 7.5 275 10.6 300 24.883 73.5 0.00
2021-06-12 18:40 80.5 32.9 48.6 4.1 305 6.5 305 24.883 85.9 0.00
2021-06-12 18:35 79.4 38.0 51.6 6.0 344 8.9 309 24.882 98.2 0.00
2021-06-12 18:30 79.0 40.0 52.6 5.4 321 8.6 304 24.880 110.8 0.00
2021-06-12 18:25 80.3 40.4 54.1 6.1 328 8.1 321 24.882 122.8 0.00
2021-06-12 18:20 81.1 35.5 51.2 6.1 320 8.2 310 24.882 135.6 0.00
2021-06-12 18:15 81.3 35.7 51.6 7.0 325 9.3 316 24.880 149.1 0.00
2021-06-12 18:10 82.2 36.4 52.9 8.2 311 9.2 309 24.878 161.8 0.00
2021-06-12 18:05 82.7 37.4 54.1 8.0 300 9.0 294 24.878 174.6 0.00
2021-06-12 18:00 83.8 35.7 53.8 7.1 305 8.5 306 24.877 187.1 0.00
2021-06-12 17:55 84.5 36.2 54.8 5.2 312 6.4 309 24.877 202.8 0.00
2021-06-12 17:50 84.7 32.4 52.0 6.0 302 6.8 307 24.876 219.8 0.00
2021-06-12 17:45 85.4 31.2 51.6 5.3 308 6.4 304 24.877 233.7 0.00